createdAt,value
2022-10-18T00:00:13.983Z,6
2022-10-18T00:10:22.333Z,6
2022-10-18T00:20:28.770Z,5
2022-10-18T00:30:32.724Z,7
2022-10-18T00:40:40.200Z,8
2022-10-18T00:50:46.287Z,9
2022-10-18T01:00:52.202Z,7
2022-10-18T01:10:58.278Z,7
2022-10-18T01:21:05.446Z,7
2022-10-18T01:31:10.388Z,6
2022-10-18T01:41:16.644Z,5
2022-10-18T01:51:20.931Z,7
2022-10-18T02:01:25.226Z,5
2022-10-18T02:11:33.057Z,6
2022-10-18T02:21:38.472Z,6
2022-10-18T02:31:41.760Z,8
2022-10-18T02:41:48.836Z,5
2022-10-18T02:51:54.207Z,9
2022-10-18T03:02:00.901Z,6
2022-10-18T03:12:07.177Z,7
2022-10-18T03:22:12.378Z,6
2022-10-18T03:32:16.698Z,7
2022-10-18T03:42:22.783Z,6
2022-10-18T03:52:29.519Z,5
2022-10-18T04:02:35.614Z,7
2022-10-18T04:12:41.027Z,7
2022-10-18T04:22:48.501Z,7
2022-10-18T04:32:54.305Z,6
2022-10-18T04:42:59.937Z,7
2022-10-18T04:53:06.496Z,6
2022-10-18T05:03:14.862Z,6
2022-10-18T05:13:21.064Z,7
2022-10-18T05:23:25.146Z,8
2022-10-18T05:33:30.475Z,8
2022-10-18T05:43:37.271Z,9
2022-10-18T05:54:14.265Z,7
2022-10-18T06:04:07.617Z,9
2022-10-18T06:14:15.728Z,7
2022-10-18T06:24:18.994Z,7
2022-10-18T06:34:24.980Z,6
2022-10-18T06:44:31.528Z,6
2022-10-18T06:55:00.880Z,8
2022-10-18T07:04:54.530Z,7
2022-10-18T07:15:10.926Z,9
2022-10-18T07:25:07.338Z,6
2022-10-18T07:35:13.083Z,7
2022-10-18T07:45:18.449Z,6
2022-10-18T07:55:24.415Z,9
2022-10-18T08:05:30.752Z,8
2022-10-18T08:15:37.009Z,7
2022-10-18T08:25:44.566Z,7
2022-10-18T08:35:52.422Z,6
2022-10-18T08:46:25.341Z,9
2022-10-18T08:56:19.766Z,11
2022-10-18T09:06:25.874Z,8
2022-10-18T09:16:29.092Z,8
2022-10-18T09:26:36.059Z,9
2022-10-18T09:36:41.652Z,13
2022-10-18T09:46:45.942Z,16
2022-10-18T09:56:52.519Z,15
2022-10-18T10:06:58.123Z,19
2022-10-18T10:17:03.989Z,13
2022-10-18T10:57:27.615Z,8
2022-10-18T11:07:33.085Z,7
2022-10-18T11:17:44.947Z,8
2022-10-18T11:27:46.611Z,7
2022-10-18T11:38:23.085Z,7
2022-10-18T11:48:17.456Z,7
2022-10-18T11:58:23.462Z,7
2022-10-18T12:08:28.404Z,6
2022-10-18T12:18:44.824Z,6
2022-10-18T12:28:50.560Z,9
2022-10-18T12:38:55.506Z,8
2022-10-18T12:49:02.507Z,10
2022-10-18T12:59:07.174Z,7
2022-10-18T13:09:12.908Z,9
2022-10-18T13:19:18.734Z,8
2022-10-18T13:29:26.774Z,9
2022-10-18T13:39:31.563Z,10
2022-10-18T13:49:37.417Z,8
2022-10-18T14:00:00.954Z,8
2022-10-18T14:11:02.161Z,7
2022-10-18T14:21:21.576Z,8
2022-10-18T14:51:28.027Z,6
2022-10-18T15:01:35.877Z,8
2022-10-18T15:11:37.497Z,12
2022-10-18T15:21:42.264Z,8
2022-10-18T15:31:48.761Z,9
2022-10-18T15:41:57.029Z,7
2022-10-18T15:52:02.148Z,8
2022-10-18T16:02:08.982Z,11
2022-10-18T16:12:12.881Z,11
2022-10-18T16:22:18.216Z,9
2022-10-18T16:32:23.653Z,12
2022-10-18T16:42:30.026Z,9
2022-10-18T16:52:37.214Z,9
2022-10-18T17:02:44.371Z,8
2022-10-18T17:12:50.286Z,8
2022-10-18T17:22:56.404Z,9
2022-10-18T17:33:03.439Z,10
2022-10-18T17:43:07.957Z,14
2022-10-18T17:53:14.368Z,14
2022-10-18T18:03:23.596Z,17
2022-10-18T18:13:24.656Z,12
2022-10-18T18:23:31.245Z,11
2022-10-18T18:33:37.028Z,10
2022-10-18T18:44:05.631Z,9
2022-10-18T18:54:04.906Z,9
2022-10-18T19:04:05.033Z,12
2022-10-18T19:14:10.312Z,17
2022-10-18T19:24:15.888Z,12
2022-10-18T19:34:42.736Z,15
2022-10-18T19:44:35.685Z,10
2022-10-18T19:54:40.905Z,13
2022-10-18T20:04:45.770Z,11
2022-10-18T20:14:51.352Z,13
2022-10-18T20:24:57.925Z,12
2022-10-18T20:35:03.467Z,13
2022-10-18T20:45:07.976Z,13
2022-10-18T20:55:12.599Z,13
2022-10-18T21:05:24.250Z,11
2022-10-18T21:15:24.979Z,13
2022-10-18T21:25:31.891Z,14
2022-10-18T21:35:39.473Z,14
2022-10-18T21:45:43.956Z,15
2022-10-18T21:55:49.140Z,13
2022-10-18T22:05:58.841Z,14
2022-10-18T22:16:02.013Z,12
2022-10-18T22:26:07.066Z,17
2022-10-18T22:36:13.661Z,16
2022-10-18T22:46:17.986Z,13
2022-10-18T22:56:23.789Z,13
2022-10-18T23:06:29.357Z,12
2022-10-18T23:16:40.947Z,14
2022-10-18T23:26:41.242Z,12
2022-10-18T23:36:46.090Z,9
2022-10-18T23:46:50.345Z,12
2022-10-18T23:56:56.538Z,9
